Chouteau, Oklahoma
Current Conditions -  °F | °C
As of 12:35 AM on Friday 31 Oct 2014 (Local Time) from KGCM Reporting Station
Clear Clear  
Wind Chill: 55°   Ceiling: Unl
Heat Index: 55°   Visibility: 10mi
Dew Point: 39°   Wind: 8mph
Humidity: 54%   Direction: 360°N
Pressure: 30.2"   Gusts: NA
Location:  36.19°N, 95.34°W
Report Text: KGCM 310535Z AUTO 36007KT 10SM CLR 13/04 A3020 RMK AO2
Loading
Personal Weather Stations






























Interactive Weather Map
Tropical Storm Tracking
New forecast layout! Learn more

10-Day Weather Forecast

Advertisements
Track Severe Weather on mobile